Time;durP1;ratioP1;P1;durP2;ratioP2;P2;SDS_P1;SDS_P2;PMS_P1;PMS_P2;Temp;Humidity;BMP_temperature;BMP_pressure;BME280_temperature;BME280_humidity;BME280_pressure;Samples;Min_cycle;Max_cycle;Signal;HPM_P1;HPM_P2
2022/01/17 00:05:11;;;;;;;23.52;4.20;;;5.80;99.90;;;;;;4833578;29;20073;-69
2022/01/17 00:07:37;;;;;;;27.70;5.20;;;5.80;99.90;;;;;;4850386;29;20062;-69
2022/01/17 00:10:05;;;;;;;21.60;3.67;;;5.80;99.90;;;;;;4850832;29;20165;-69
2022/01/17 00:12:33;;;;;;;25.20;5.57;;;5.80;99.90;;;;;;4834041;29;20307;-69
2022/01/17 00:14:59;;;;;;;16.52;3.40;;;5.80;99.90;;;;;;4833575;29;20065;-69
2022/01/17 00:17:33;;;;;;;21.73;3.87;;;5.90;99.90;;;;;;4850328;29;20042;-69
2022/01/17 00:20:08;;;;;;;23.65;3.80;;;5.90;99.90;;;;;;4834014;29;20318;-69
2022/01/17 00:22:34;;;;;;;16.08;3.47;;;5.80;99.90;;;;;;4857600;29;20093;-69
2022/01/17 00:25:00;;;;;;;15.43;3.65;;;5.90;99.90;;;;;;4852126;29;20462;-69
2022/01/17 00:27:26;;;;;;;22.20;3.53;;;5.80;99.90;;;;;;4850478;29;20046;-69
2022/01/17 00:29:51;;;;;;;26.53;5.07;;;5.80;99.90;;;;;;4848981;29;20076;-69
2022/01/17 00:32:18;;;;;;;20.57;3.87;;;5.90;99.90;;;;;;4849287;29;20080;-69
2022/01/17 00:34:46;;;;;;;25.80;4.30;;;5.80;99.90;;;;;;4833492;29;20512;-69
2022/01/17 00:37:11;;;;;;;20.48;5.05;;;5.80;99.90;;;;;;4834014;29;20079;-69
2022/01/17 00:39:37;;;;;;;13.40;3.40;;;5.90;99.90;;;;;;4858011;29;20084;-69
2022/01/17 00:42:03;;;;;;;19.20;3.73;;;5.80;99.90;;;;;;4834980;29;20303;-69
2022/01/17 00:44:29;;;;;;;18.75;3.95;;;5.80;99.90;;;;;;4839130;29;20093;-69
2022/01/17 00:46:54;;;;;;;19.50;4.33;;;5.80;99.90;;;;;;4849352;29;20140;-69
2022/01/17 00:49:20;;;;;;;22.13;4.03;;;5.70;99.90;;;;;;4853484;29;20046;-69
2022/01/17 00:51:47;;;;;;;21.40;4.10;;;5.70;99.90;;;;;;4853878;29;20034;-69
2022/01/17 00:54:12;;;;;;;;;;;5.70;99.90;;;;;;4852187;29;20058;-69
2022/01/17 00:56:38;;;;;;;18.25;3.40;;;5.50;99.90;;;;;;4853786;29;19924;-69
2022/01/17 00:59:03;;;;;;;24.23;4.33;;;5.60;99.90;;;;;;4853442;29;20057;-69
2022/01/17 01:01:29;;;;;;;37.93;5.50;;;5.60;99.90;;;;;;4826673;29;20114;-69
2022/01/17 01:03:55;;;;;;;17.33;3.95;;;5.50;99.90;;;;;;4835224;29;20050;-69
2022/01/17 01:06:21;;;;;;;20.50;3.63;;;5.50;99.90;;;;;;4836485;29;20054;-69
2022/01/17 01:08:46;;;;;;;22.47;3.97;;;5.50;99.90;;;;;;4836218;29;20145;-69
2022/01/17 01:11:12;;;;;;;17.20;4.23;;;5.50;99.90;;;;;;4836943;29;20070;-69
2022/01/17 01:13:38;;;;;;;18.23;3.85;;;5.50;99.90;;;;;;4836710;29;20310;-69
2022/01/17 01:28:57;;;;;;;16.83;4.10;;;5.50;99.90;;;;;;4853103;29;20050;-69
2022/01/17 01:31:36;;;;;;;22.97;3.83;;;5.60;99.90;;;;;;4853025;29;20110;-68
2022/01/17 01:34:05;;;;;;;23.75;3.97;;;5.60;99.90;;;;;;4836051;29;20904;-69
2022/01/17 01:36:33;;;;;;;19.98;4.53;;;5.60;99.90;;;;;;4836268;29;20069;-69
2022/01/17 01:38:58;;;;;;;27.90;4.30;;;5.50;99.90;;;;;;4855941;29;20053;-69
2022/01/17 01:41:24;;;;;;;22.93;4.77;;;5.50;99.90;;;;;;4825187;29;20197;-69
2022/01/17 01:43:50;;;;;;;14.83;3.33;;;5.50;99.90;;;;;;4853070;29;20301;-69
2022/01/17 01:46:19;;;;;;;28.25;3.92;;;5.50;99.90;;;;;;4846575;29;20141;-69
2022/01/17 01:48:44;;;;;;;23.60;4.32;;;5.40;99.90;;;;;;4826880;29;20070;-69
2022/01/17 01:51:10;;;;;;;21.13;3.65;;;5.40;99.90;;;;;;4835899;29;20046;-69
2022/01/17 01:53:37;;;;;;;17.90;4.07;;;5.40;99.90;;;;;;4852630;29;20172;-69
2022/01/17 01:56:04;;;;;;;15.48;3.45;;;5.40;99.90;;;;;;4851958;29;20384;-69
2022/01/17 01:58:29;;;;;;;20.67;3.75;;;5.30;99.90;;;;;;4852765;29;20067;-69
2022/01/17 02:00:55;;;;;;;25.65;4.00;;;5.30;99.90;;;;;;4851071;29;20134;-69
2022/01/17 02:03:22;;;;;;;21.03;5.07;;;5.30;99.90;;;;;;4835171;29;20069;-69
2022/01/17 02:05:48;;;;;;;21.33;4.25;;;5.30;99.90;;;;;;4835780;29;20621;-69
2022/01/17 02:08:14;;;;;;;21.70;3.40;;;5.30;99.90;;;;;;4835166;29;20068;-69
2022/01/17 02:10:40;;;;;;;22.38;4.10;;;5.30;99.90;;;;;;4851058;29;20081;-68
2022/01/17 02:13:06;;;;;;;23.98;4.65;;;5.30;99.90;;;;;;4851889;29;20057;-69
2022/01/17 02:15:32;;;;;;;17.60;3.78;;;5.30;99.90;;;;;;4852526;29;20390;-69
2022/01/17 02:17:58;;;;;;;22.67;4.03;;;5.20;99.90;;;;;;4835265;29;20054;-69
2022/01/17 02:20:41;;;;;;;19.40;3.88;;;5.20;99.90;;;;;;4852239;29;20046;-68
2022/01/17 02:23:08;;;;;;;26.15;3.97;;;5.20;99.90;;;;;;4835254;29;20081;-69
2022/01/17 02:25:34;;;;;;;23.98;4.15;;;5.20;99.90;;;;;;4835311;29;20089;-69
2022/01/17 02:28:00;;;;;;;24.55;4.32;;;5.20;99.90;;;;;;4850175;29;20100;-69
2022/01/17 02:30:31;;;;;;;22.92;3.95;;;5.20;99.90;;;;;;4852578;29;20057;-69
2022/01/17 02:32:57;;;;;;;24.25;4.72;;;5.20;99.90;;;;;;4851689;29;20467;-69
2022/01/17 02:35:25;;;;;;;20.77;3.72;;;5.20;99.90;;;;;;4834935;29;20061;-69
2022/01/17 02:37:51;;;;;;;21.83;4.97;;;5.20;99.90;;;;;;4834592;29;20072;-68
2022/01/17 02:40:19;;;;;;;26.98;3.83;;;5.30;99.90;;;;;;4848358;29;20220;-69
2022/01/17 02:42:56;;;;;;;23.48;3.92;;;5.30;99.90;;;;;;4848012;29;20128;-69
2022/01/17 02:47:58;;;;;;;19.42;3.40;;;5.30;99.90;;;;;;4844379;29;20053;-69
2022/01/17 02:50:24;;;;;;;22.50;3.83;;;5.30;99.90;;;;;;4835120;29;20134;-69
2022/01/17 02:52:49;;;;;;;23.17;4.07;;;5.30;99.90;;;;;;4849986;29;20441;-69
2022/01/17 02:55:15;;;;;;;23.87;4.77;;;5.30;99.90;;;;;;4834755;29;20049;-69
2022/01/17 02:57:41;;;;;;;26.60;4.83;;;5.30;99.90;;;;;;4849799;29;20066;-69
2022/01/17 03:00:10;;;;;;;24.80;4.33;;;5.30;99.90;;;;;;4834976;29;20087;-69
2022/01/17 03:02:36;;;;;;;17.98;4.18;;;5.30;99.90;;;;;;4834876;29;20054;-69
2022/01/17 03:05:02;;;;;;;24.90;4.87;;;5.40;99.90;;;;;;4835006;29;20086;-69
2022/01/17 03:07:27;;;;;;;24.20;3.92;;;5.40;99.90;;;;;;4833632;29;20069;-69
2022/01/17 03:10:02;;;;;;;27.27;4.90;;;5.40;99.90;;;;;;4834318;29;20411;-69
2022/01/17 03:12:30;;;;;;;20.33;3.85;;;5.40;99.90;;;;;;4834954;29;20057;-69
2022/01/17 03:14:56;;;;;;;20.75;4.28;;;5.40;99.90;;;;;;4834838;29;20109;-69
2022/01/17 03:17:22;;;;;;;19.42;4.45;;;5.40;99.90;;;;;;4834516;29;20114;-69
2022/01/17 03:19:48;;;;;;;25.20;4.10;;;5.40;99.90;;;;;;4834180;29;20054;-69
2022/01/17 03:22:13;;;;;;;18.07;3.37;;;5.40;99.90;;;;;;4851512;29;20106;-68
2022/01/17 03:24:39;;;;;;;18.70;4.50;;;5.40;99.90;;;;;;4850857;29;20136;-68
2022/01/17 03:27:05;;;;;;;24.07;3.73;;;5.50;99.90;;;;;;4834693;29;20058;-69
2022/01/17 03:29:30;;;;;;;21.33;3.78;;;5.50;99.90;;;;;;4849398;29;20072;-69
2022/01/17 03:31:56;;;;;;;16.57;4.50;;;5.50;99.90;;;;;;4834497;29;20078;-69
2022/01/17 03:34:22;;;;;;;18.95;3.92;;;5.50;99.90;;;;;;4833983;29;20085;-69
2022/01/17 03:36:48;;;;;;;25.30;3.88;;;5.60;99.90;;;;;;4851091;29;20084;-69
2022/01/17 03:39:14;;;;;;;32.05;5.28;;;5.60;99.90;;;;;;4836322;29;20049;-69
2022/01/17 03:41:40;;;;;;;21.42;4.00;;;5.60;99.90;;;;;;4831384;29;20157;-69
2022/01/17 03:44:07;;;;;;;19.92;3.53;;;5.60;99.90;;;;;;4819557;29;20418;-69
2022/01/17 03:46:32;;;;;;;26.45;4.93;;;5.60;99.90;;;;;;4842781;29;20050;-69
2022/01/17 03:48:58;;;;;;;20.10;3.80;;;5.60;99.90;;;;;;4842041;29;20554;-69
2022/01/17 03:51:24;;;;;;;24.70;4.25;;;5.60;99.90;;;;;;4850448;29;20052;-69
2022/01/17 03:53:49;;;;;;;14.80;3.57;;;5.70;99.90;;;;;;4833806;29;20054;-69
2022/01/17 03:56:16;;;;;;;18.27;3.97;;;5.70;99.90;;;;;;4834218;29;20070;-69
2022/01/17 03:58:42;;;;;;;18.13;3.63;;;5.70;99.90;;;;;;4833972;29;20065;-69
2022/01/17 04:01:09;;;;;;;25.58;3.58;;;5.70;99.90;;;;;;4849248;29;20168;-69
2022/01/17 04:03:35;;;;;;;24.02;3.75;;;5.60;99.90;;;;;;4834175;29;20110;-68
2022/01/17 04:06:00;;;;;;;18.43;3.60;;;5.70;99.90;;;;;;4847492;29;20378;-69
2022/01/17 04:08:26;;;;;;;19.37;3.63;;;5.70;99.90;;;;;;4833556;29;20362;-69
2022/01/17 04:10:52;;;;;;;13.93;3.30;;;5.60;99.90;;;;;;4850572;29;20050;-69
2022/01/17 04:13:18;;;;;;;16.67;3.95;;;5.60;99.90;;;;;;4849107;29;20114;-69
2022/01/17 04:15:44;;;;;;;22.35;4.90;;;5.70;99.90;;;;;;4834331;29;20061;-69
2022/01/17 04:18:10;;;;;;;18.92;3.75;;;5.70;99.90;;;;;;4834561;29;20053;-69
2022/01/17 04:20:38;;;;;;;25.35;3.85;;;5.70;99.90;;;;;;4837106;29;20097;-69
2022/01/17 04:23:08;;;;;;;19.08;3.67;;;5.70;99.90;;;;;;4837028;29;20057;-69
2022/01/17 04:25:36;;;;;;;30.33;4.18;;;5.70;99.90;;;;;;4854134;29;20071;-69
2022/01/17 04:28:03;;;;;;;20.15;4.40;;;5.80;99.90;;;;;;4853994;29;20539;-69
2022/01/17 04:30:29;;;;;;;19.05;3.80;;;5.80;99.90;;;;;;4854143;29;20050;-69
2022/01/17 04:32:57;;;;;;;17.23;3.13;;;5.80;99.90;;;;;;4837038;29;20418;-69
2022/01/17 04:35:25;;;;;;;16.90;3.53;;;5.80;99.90;;;;;;4854350;29;20451;-69
2022/01/17 04:38:06;;;;;;;21.30;3.55;;;5.80;99.90;;;;;;4836737;29;20098;-69
2022/01/17 04:40:37;;;;;;;23.60;4.63;;;5.90;99.90;;;;;;4869171;29;20056;-69
2022/01/17 04:43:06;;;;;;;17.77;3.67;;;5.90;99.90;;;;;;4855987;29;20126;-69
2022/01/17 04:45:32;;;;;;;21.60;4.68;;;5.90;99.90;;;;;;4853978;29;20061;-69
2022/01/17 04:47:59;;;;;;;24.27;4.43;;;5.90;99.90;;;;;;4852378;29;20053;-70
2022/01/17 04:50:26;;;;;;;26.42;4.15;;;6.00;99.90;;;;;;4837220;29;20062;-69
2022/01/17 04:52:57;;;;;;;25.13;5.00;;;6.00;99.90;;;;;;4836372;29;20065;-69
2022/01/17 04:55:24;;;;;;;21.98;3.60;;;6.00;99.90;;;;;;4837039;29;20058;-68
2022/01/17 04:57:50;;;;;;;24.85;4.35;;;6.00;99.90;;;;;;4836981;29;20081;-69
2022/01/17 05:00:18;;;;;;;20.83;4.07;;;6.00;99.90;;;;;;4854108;29;20120;-69
2022/01/17 05:02:44;;;;;;;19.85;4.60;;;6.10;99.90;;;;;;4853074;29;20100;-68
2022/01/17 05:05:10;;;;;;;21.33;4.80;;;6.00;99.90;;;;;;4853843;29;20065;-69
2022/01/17 05:07:37;;;;;;;17.55;3.63;;;6.10;99.90;;;;;;4853484;29;20046;-69
2022/01/17 05:10:09;;;;;;;22.13;4.53;;;6.10;99.90;;;;;;4837118;29;20054;-69
2022/01/17 05:12:35;;;;;;;27.67;5.30;;;6.10;99.90;;;;;;4853566;29;20343;-69
2022/01/17 05:15:01;;;;;;;26.08;5.07;;;6.10;99.90;;;;;;4836520;29;20058;-68
2022/01/17 05:19:59;;;;;;;24.63;4.43;;;6.10;99.90;;;;;;4853840;29;20098;-68
2022/01/17 05:22:33;;;;;;;27.58;4.82;;;6.10;99.90;;;;;;4853222;29;20073;-69
2022/01/17 05:25:01;;;;;;;20.38;4.05;;;6.10;99.90;;;;;;4852954;29;20066;-69
2022/01/17 05:27:27;;;;;;;24.00;5.30;;;6.20;99.90;;;;;;4836269;29;20066;-68
2022/01/17 05:29:52;;;;;;;26.38;5.35;;;6.20;99.90;;;;;;4852662;29;20057;-69
2022/01/17 05:32:20;;;;;;;26.30;4.53;;;6.20;99.90;;;;;;4852936;29;20066;-69
2022/01/17 05:34:46;;;;;;;24.52;4.63;;;6.20;99.90;;;;;;4823031;29;20486;-69
2022/01/17 05:37:13;;;;;;;32.47;4.93;;;6.20;99.90;;;;;;4853144;29;20050;-69
2022/01/17 05:39:42;;;;;;;28.75;4.57;;;6.20;99.90;;;;;;4854744;29;20060;-69
2022/01/17 05:42:09;;;;;;;30.20;4.68;;;6.20;99.90;;;;;;4836039;29;20182;-68
2022/01/17 05:44:35;;;;;;;31.33;5.68;;;6.20;99.90;;;;;;4852891;29;20053;-69
2022/01/17 05:47:02;;;;;;;24.10;4.60;;;6.30;99.90;;;;;;4836113;29;20053;-69
2022/01/17 05:49:28;;;;;;;26.30;4.65;;;6.30;99.90;;;;;;4852631;29;20798;-69
2022/01/17 05:51:53;;;;;;;26.02;4.63;;;6.30;99.90;;;;;;4852967;29;20042;-69
2022/01/17 05:54:19;;;;;;;27.40;5.77;;;6.30;99.90;;;;;;4852471;29;20065;-69
2022/01/17 05:56:45;;;;;;;27.73;5.40;;;6.30;99.90;;;;;;4852800;29;20306;-69
2022/01/17 05:59:10;;;;;;;17.23;4.70;;;6.30;99.90;;;;;;4852525;29;20054;-69
2022/01/17 06:01:42;;;;;;;32.10;5.83;;;6.20;99.90;;;;;;4836090;29;20049;-69
2022/01/17 06:04:08;;;;;;;22.20;5.05;;;6.20;99.90;;;;;;4852757;29;20053;-69
2022/01/17 06:06:34;;;;;;;16.58;4.70;;;6.30;99.90;;;;;;4852619;29;20075;-68
2022/01/17 06:09:00;;;;;;;27.57;5.10;;;6.20;99.90;;;;;;4852580;29;20046;-69
2022/01/17 06:11:25;;;;;;;34.10;5.40;;;6.20;99.90;;;;;;4835646;29;20050;-69
2022/01/17 06:13:51;;;;;;;27.90;5.10;;;6.20;99.90;;;;;;4827892;29;20053;-69
2022/01/17 06:16:17;;;;;;;21.67;4.97;;;6.20;99.90;;;;;;4850285;29;20117;-69
2022/01/17 06:18:43;;;;;;;27.10;5.50;;;6.20;99.90;;;;;;4832714;29;20059;-69
2022/01/17 06:21:09;;;;;;;28.60;5.53;;;6.20;99.90;;;;;;4844738;29;20045;-69
2022/01/17 06:23:34;;;;;;;27.98;5.53;;;6.20;99.90;;;;;;4851962;29;20054;-69
2022/01/17 06:26:00;;;;;;;29.87;5.97;;;6.20;99.90;;;;;;4852451;29;20050;-69
2022/01/17 06:28:27;;;;;;;29.07;5.17;;;6.20;99.90;;;;;;4835316;29;20302;-69
2022/01/17 06:30:52;;;;;;;;;;;6.20;99.90;;;;;;4852673;29;20065;-69
2022/01/17 06:33:18;;;;;;;28.67;5.25;;;6.20;99.90;;;;;;4851672;29;19929;-69
2022/01/17 06:35:44;;;;;;;40.70;6.03;;;6.20;99.90;;;;;;4836658;29;20061;-69
2022/01/17 06:38:09;;;;;;;31.17;5.50;;;6.20;99.90;;;;;;4851345;29;20061;-69
2022/01/17 06:40:35;;;;;;;32.00;5.87;;;6.20;99.90;;;;;;4838968;29;20069;-69
2022/01/17 06:43:01;;;;;;;29.47;5.87;;;6.20;99.90;;;;;;4834622;29;20628;-70
2022/01/17 06:45:26;;;;;;;29.53;5.60;;;6.20;99.90;;;;;;4837780;29;20133;-70
2022/01/17 06:47:52;;;;;;;28.85;5.43;;;6.20;99.90;;;;;;4852019;29;20128;-72
2022/01/17 06:50:18;;;;;;;30.25;5.38;;;6.20;99.90;;;;;;4851879;29;20042;-71
2022/01/17 06:52:45;;;;;;;27.88;5.72;;;6.20;99.90;;;;;;4851133;29;20041;-73
2022/01/17 06:55:11;;;;;;;32.72;6.15;;;6.30;99.90;;;;;;4851867;29;20054;-78
2022/01/17 06:57:37;;;;;;;38.35;6.07;;;6.30;99.90;;;;;;4851960;29;20064;-76
2022/01/17 07:00:08;;;;;;;30.85;6.13;;;6.30;99.90;;;;;;4851582;29;20114;-76
2022/01/17 07:02:34;;;;;;;41.10;5.82;;;6.30;99.90;;;;;;4835382;29;20069;-74
2022/01/17 07:05:00;;;;;;;30.92;6.22;;;6.30;99.90;;;;;;4851961;29;20098;-75
2022/01/17 07:07:25;;;;;;;42.37;6.63;;;6.30;99.90;;;;;;4851696;29;20053;-75
2022/01/17 07:09:51;;;;;;;50.70;7.27;;;6.30;99.90;;;;;;4851416;29;20038;-70
2022/01/17 07:12:16;;;;;;;29.77;6.10;;;6.30;99.90;;;;;;4851220;29;20405;-76
2022/01/17 07:14:42;;;;;;;51.77;6.30;;;6.30;99.90;;;;;;4851696;29;20122;-76
2022/01/17 07:17:09;;;;;;;35.70;6.50;;;6.40;99.90;;;;;;4851896;29;20799;-77
2022/01/17 07:19:36;;;;;;;28.95;5.47;;;6.40;99.90;;;;;;4834597;29;20420;-73
2022/01/17 07:22:02;;;;;;;;;;;6.40;99.90;;;;;;4834896;29;20061;-73
2022/01/17 07:24:28;;;;;;;31.00;6.07;;;6.40;99.90;;;;;;4849652;29;20042;-76
2022/01/17 07:26:53;;;;;;;45.50;6.83;;;6.40;99.90;;;;;;4849900;29;20058;-77
2022/01/17 07:29:19;;;;;;;40.67;6.53;;;6.50;99.90;;;;;;4849579;29;20050;-73
2022/01/17 07:31:45;;;;;;;41.57;6.67;;;6.50;99.90;;;;;;4834527;29;20045;-75
2022/01/17 07:34:11;;;;;;;34.20;5.83;;;6.50;99.90;;;;;;4851044;29;20133;-76
2022/01/17 07:36:37;;;;;;;38.33;6.80;;;6.50;99.90;;;;;;4834581;29;20041;-76
2022/01/17 07:39:04;;;;;;;31.25;6.28;;;6.60;99.90;;;;;;4837582;29;20057;-75
2022/01/17 07:41:29;;;;;;;39.95;6.78;;;6.60;99.90;;;;;;4855146;29;20038;-76
2022/01/17 07:43:55;;;;;;;33.63;6.10;;;6.60;99.90;;;;;;4850190;29;20092;-76
2022/01/17 07:46:33;;;;;;;40.78;6.25;;;6.70;99.90;;;;;;4849914;29;20046;-76
2022/01/17 07:51:26;;;;;;;41.88;6.85;;;6.70;99.90;;;;;;4834495;29;20060;-75
2022/01/17 07:53:52;;;;;;;40.92;6.50;;;6.70;99.90;;;;;;4849422;29;20057;-70
2022/01/17 07:56:18;;;;;;;43.97;6.28;;;6.70;99.90;;;;;;4851123;29;20134;-75
2022/01/17 07:58:44;;;;;;;34.33;6.90;;;6.80;99.90;;;;;;4834174;29;20054;-76
2022/01/17 08:01:10;;;;;;;45.38;7.68;;;6.80;99.90;;;;;;4834466;29;20350;-76
2022/01/17 08:03:36;;;;;;;47.85;8.07;;;6.80;99.90;;;;;;4833742;29;20141;-75
2022/01/17 08:06:02;;;;;;;48.17;8.57;;;6.90;99.90;;;;;;4834485;29;20077;-74
2022/01/17 08:08:28;;;;;;;38.00;5.88;;;6.90;99.90;;;;;;4833154;29;20052;-76
2022/01/17 08:10:54;;;;;;;36.80;8.27;;;6.90;99.90;;;;;;4834506;29;20097;-75
2022/01/17 08:13:19;;;;;;;39.47;6.23;;;6.90;99.90;;;;;;4850923;29;20082;-75
2022/01/17 08:15:46;;;;;;;32.50;6.93;;;7.00;99.90;;;;;;4850859;29;20332;-79
2022/01/17 08:18:14;;;;;;;34.00;5.90;;;7.00;99.90;;;;;;4850670;29;20073;-70
2022/01/17 08:20:40;;;;;;;39.15;7.43;;;7.00;99.90;;;;;;4834132;29;20106;-77
2022/01/17 08:23:05;;;;;;;36.05;5.88;;;7.10;99.90;;;;;;4832987;29;20084;-70
2022/01/17 08:25:32;;;;;;;35.42;5.82;;;7.10;99.90;;;;;;4850424;29;20134;-71
2022/01/17 08:27:57;;;;;;;39.28;7.07;;;7.10;99.90;;;;;;4850456;29;20102;-70
2022/01/17 08:30:23;;;;;;;45.23;6.10;;;7.10;99.90;;;;;;4834105;29;20057;-70
2022/01/17 08:32:50;;;;;;;49.73;8.40;;;7.10;99.90;;;;;;4849300;29;20083;-71
2022/01/17 08:35:17;;;;;;;50.22;6.53;;;7.10;99.90;;;;;;4841217;29;20068;-71
2022/01/17 08:37:43;;;;;;;44.20;7.35;;;7.20;99.90;;;;;;4837117;29;20049;-71
2022/01/17 08:40:10;;;;;;;36.27;6.30;;;7.20;99.90;;;;;;4840818;29;20114;-71
2022/01/17 08:42:39;;;;;;;39.72;7.05;;;7.20;99.90;;;;;;4832500;29;20607;-71
2022/01/17 08:45:11;;;;;;;35.35;6.80;;;7.20;99.90;;;;;;4849473;29;20068;-71
2022/01/17 08:47:37;;;;;;;44.83;7.50;;;7.30;99.90;;;;;;4848598;29;20065;-71
2022/01/17 08:50:07;;;;;;;40.67;7.10;;;7.30;99.90;;;;;;4850262;29;20069;-71
2022/01/17 08:52:33;;;;;;;42.45;6.60;;;7.40;99.90;;;;;;4850473;29;20283;-71
2022/01/17 08:54:59;;;;;;;42.78;7.25;;;7.40;99.90;;;;;;4833394;29;20064;-72
2022/01/17 08:57:26;;;;;;;43.78;6.10;;;7.40;99.90;;;;;;4850392;29;20092;-71
2022/01/17 08:59:52;;;;;;;43.28;7.50;;;7.50;99.90;;;;;;4833425;29;20066;-71
2022/01/17 09:02:18;;;;;;;40.60;7.38;;;7.50;99.90;;;;;;4848783;29;20054;-70
2022/01/17 09:04:44;;;;;;;38.70;7.18;;;7.60;99.90;;;;;;4833940;29;20066;-73
2022/01/17 09:07:12;;;;;;;48.25;8.15;;;7.60;99.90;;;;;;4837122;29;20038;-79
2022/01/17 09:09:39;;;;;;;42.63;8.05;;;7.60;99.90;;;;;;4836059;29;20057;-69
2022/01/17 09:12:06;;;;;;;43.78;8.13;;;7.60;99.90;;;;;;4837064;29;20064;-71
2022/01/17 09:14:32;;;;;;;34.17;7.03;;;7.70;99.90;;;;;;4835546;29;20065;-71
2022/01/17 09:16:58;;;;;;;49.30;7.63;;;7.70;99.90;;;;;;4836948;29;20061;-70
2022/01/17 09:19:24;;;;;;;45.80;8.43;;;7.70;99.90;;;;;;4836277;29;20080;-73
2022/01/17 09:21:50;;;;;;;41.50;7.33;;;7.80;99.90;;;;;;4852328;29;20046;-70
2022/01/17 09:24:15;;;;;;;36.73;7.03;;;7.90;99.90;;;;;;4830166;29;20299;-72
2022/01/17 09:26:41;;;;;;;50.63;7.63;;;7.90;99.90;;;;;;4818754;29;20193;-71
2022/01/17 09:29:07;;;;;;;38.43;6.47;;;7.90;99.90;;;;;;4845640;29;20122;-68
2022/01/17 09:31:32;;;;;;;45.17;9.87;;;8.00;99.90;;;;;;4836926;29;20100;-68
2022/01/17 09:33:58;;;;;;;45.03;8.73;;;8.00;99.90;;;;;;4852381;29;20103;-67
2022/01/17 09:36:25;;;;;;;46.73;8.03;;;8.00;99.90;;;;;;4835569;29;20061;-70
2022/01/17 09:38:52;;;;;;;43.20;8.23;;;8.00;99.90;;;;;;4852963;29;20311;-71
2022/01/17 09:41:17;;;;;;;46.50;8.10;;;8.10;99.90;;;;;;4836846;29;20061;-70
2022/01/17 09:43:43;;;;;;;49.67;8.02;;;8.10;99.90;;;;;;4852431;29;20054;-68
2022/01/17 09:46:10;;;;;;;42.20;8.65;;;8.10;99.90;;;;;;4852846;29;20169;-67
2022/01/17 09:48:38;;;;;;;43.92;9.10;;;8.10;99.90;;;;;;4852809;29;20058;-69
2022/01/17 09:51:17;;;;;;;38.42;7.40;;;8.20;99.90;;;;;;4852477;29;20149;-67
2022/01/17 09:53:44;;;;;;;40.53;7.50;;;8.20;99.90;;;;;;4856812;29;20055;-71
2022/01/17 09:56:11;;;;;;;51.00;11.00;;;8.20;99.90;;;;;;4835354;29;20522;-67
2022/01/17 09:58:38;;;;;;;50.05;8.02;;;8.30;99.90;;;;;;4852061;29;20081;-67
2022/01/17 10:01:04;;;;;;;54.03;8.05;;;8.30;99.90;;;;;;4836014;29;20340;-68
2022/01/17 10:03:30;;;;;;;39.10;7.80;;;8.30;99.90;;;;;;4852413;29;20046;-70
2022/01/17 10:05:56;;;;;;;48.40;9.00;;;8.40;99.90;;;;;;4850303;29;20098;-68
2022/01/17 10:08:23;;;;;;;52.15;8.65;;;8.40;99.90;;;;;;4851237;29;20049;-69
2022/01/17 10:10:59;;;;;;;;;;;8.40;99.90;;;;;;4835074;29;20042;-70
2022/01/17 10:13:37;;;;;;;47.05;7.97;;;8.30;99.90;;;;;;4834356;29;19932;-69
2022/01/17 10:16:16;;;;;;;50.05;7.97;;;8.30;99.90;;;;;;4834086;29;20089;-69
2022/01/17 10:18:50;;;;;;;49.85;8.82;;;8.40;99.90;;;;;;4834873;29;20077;-69
2022/01/17 10:21:36;;;;;;;47.72;7.35;;;8.40;99.90;;;;;;4849391;29;20038;-75
2022/01/17 10:35:13;;;;;;;52.63;9.40;;;8.50;99.90;;;;;;4834843;29;20058;-69
2022/01/17 10:37:39;;;;;;;47.08;8.45;;;8.50;99.90;;;;;;4834119;29;20196;-69
2022/01/17 10:40:08;;;;;;;53.13;8.48;;;8.50;99.90;;;;;;4816008;29;20050;-69
2022/01/17 10:42:43;;;;;;;57.90;11.25;;;8.60;99.90;;;;;;4833792;29;20170;-68
2022/01/17 10:45:18;;;;;;;58.15;10.25;;;8.50;99.90;;;;;;4848491;29;20124;-68
2022/01/17 10:47:46;;;;;;;61.35;10.13;;;8.50;99.90;;;;;;4833977;29;20050;-68
2022/01/17 10:50:35;;;;;;;55.42;8.88;;;8.60;99.90;;;;;;4850976;29;20048;-69
2022/01/17 10:53:04;;;;;;;60.95;10.27;;;8.60;99.90;;;;;;4849797;29;20122;-69
2022/01/17 10:55:34;;;;;;;60.05;9.23;;;8.60;99.90;;;;;;4809266;29;20057;-69
2022/01/17 10:58:09;;;;;;;59.10;11.25;;;8.60;99.90;;;;;;4850614;29;20126;-69
2022/01/17 11:00:37;;;;;;;72.05;12.40;;;8.60;99.90;;;;;;4832650;29;20197;-69
2022/01/17 11:03:06;;;;;;;64.28;10.15;;;8.60;99.90;;;;;;4850838;29;20062;-68
2022/01/17 11:05:32;;;;;;;55.70;9.93;;;8.70;99.90;;;;;;4816357;29;20042;-68
2022/01/17 11:08:01;;;;;;;54.70;10.00;;;8.70;99.90;;;;;;4834255;29;20093;-71
2022/01/17 11:10:31;;;;;;;64.68;10.73;;;8.80;99.90;;;;;;4851203;29;20050;-70
2022/01/17 11:13:02;;;;;;;60.00;11.82;;;8.80;99.90;;;;;;4851075;29;20042;-70
2022/01/17 11:15:32;;;;;;;60.60;10.90;;;8.80;99.90;;;;;;4850294;29;20110;-72
2022/01/17 11:18:04;;;;;;;46.78;9.38;;;8.80;99.90;;;;;;4816907;29;20073;-72
2022/01/17 11:20:31;;;;;;;47.45;9.10;;;8.90;99.90;;;;;;4847356;29;20132;-69
2022/01/17 11:22:59;;;;;;;51.80;10.38;;;8.80;99.90;;;;;;4839050;29;20539;-69
2022/01/17 11:25:54;;;;;;;61.75;9.23;;;8.80;99.90;;;;;;4833696;29;20062;-74
2022/01/17 11:28:22;;;;;;;54.80;10.52;;;8.80;99.90;;;;;;4835316;29;20152;-71
2022/01/17 11:30:50;;;;;;;60.20;10.85;;;8.90;99.90;;;;;;4840160;29;20119;-71
2022/01/17 11:33:16;;;;;;;59.28;10.93;;;8.90;99.90;;;;;;4838010;29;20053;-73
2022/01/17 11:35:43;;;;;;;61.75;10.57;;;8.90;99.90;;;;;;4850771;29;20073;-72
2022/01/17 11:38:21;;;;;;;56.70;9.88;;;8.90;99.90;;;;;;4850702;29;20171;-75
2022/01/17 11:40:46;;;;;;;57.38;10.98;;;8.90;99.90;;;;;;4826770;29;20057;-74
2022/01/17 11:43:33;;;;;;;52.30;9.18;;;8.90;99.90;;;;;;4816421;29;20137;-74
2022/01/17 11:46:00;;;;;;;57.97;9.82;;;8.90;99.90;;;;;;4850028;29;20049;-76
2022/01/17 11:48:31;;;;;;;71.88;12.10;;;9.00;99.90;;;;;;4851020;29;20038;-76
2022/01/17 11:51:10;;;;;;;57.95;10.50;;;9.00;99.90;;;;;;4851215;29;20146;-77
2022/01/17 11:53:38;;;;;;;54.42;10.65;;;8.90;99.90;;;;;;4830855;29;20058;-77
2022/01/17 11:56:04;;;;;;;57.85;9.63;;;9.00;99.90;;;;;;4828001;29;20149;-76
2022/01/17 11:58:46;;;;;;;51.88;9.80;;;9.00;99.90;;;;;;4834370;29;20065;-77
2022/01/17 12:01:20;;;;;;;43.15;9.95;;;9.00;99.90;;;;;;4834394;29;20060;-77
2022/01/17 12:03:51;;;;;;;62.40;10.68;;;9.00;99.90;;;;;;4851339;29;20075;-77
2022/01/17 12:06:17;;;;;;;57.53;11.30;;;9.00;99.90;;;;;;4851115;29;20496;-77
2022/01/17 12:08:44;;;;;;;66.97;11.30;;;9.00;99.90;;;;;;4854153;29;20046;-78
2022/01/17 12:11:26;;;;;;;60.78;12.05;;;9.00;99.90;;;;;;4850707;29;20061;-78
2022/01/17 12:13:52;;;;;;;54.88;10.10;;;8.90;99.90;;;;;;4834474;29;20106;-76
2022/01/17 12:16:34;;;;;;;60.83;10.25;;;9.00;99.90;;;;;;4834185;29;20045;-77
2022/01/17 12:19:00;;;;;;;67.90;11.85;;;9.00;99.90;;;;;;4834242;29;20079;-76
2022/01/17 12:21:32;;;;;;;64.72;10.73;;;9.00;99.90;;;;;;4834218;29;20110;-75
2022/01/17 12:24:20;;;;;;;51.97;10.70;;;9.00;99.90;;;;;;4832403;29;20143;-77
2022/01/17 12:26:57;;;;;;;60.30;11.23;;;9.00;99.90;;;;;;4833432;29;20124;-77
2022/01/17 12:29:47;;;;;;;58.55;9.25;;;8.90;99.90;;;;;;4834213;29;20129;-77
2022/01/17 12:32:25;;;;;;;52.95;9.40;;;8.90;99.90;;;;;;4834411;29;20084;-78
2022/01/17 12:34:59;;;;;;;52.95;9.60;;;8.90;99.90;;;;;;4833998;29;20057;-69
2022/01/17 12:37:29;;;;;;;55.22;10.57;;;9.00;99.90;;;;;;4818955;29;20084;-78
2022/01/17 12:40:16;;;;;;;64.78;10.98;;;9.00;99.90;;;;;;4820123;29;20087;-78
2022/01/17 12:43:11;;;;;;;63.95;11.25;;;8.90;99.90;;;;;;4852564;29;20076;-77
2022/01/17 12:45:47;;;;;;;53.13;10.27;;;9.00;99.90;;;;;;4844120;29;20061;-79
2022/01/17 12:48:17;;;;;;;64.07;11.43;;;9.00;99.90;;;;;;4837444;29;20070;-70
2022/01/17 12:50:47;;;;;;;48.30;8.75;;;9.00;99.90;;;;;;4837106;29;20046;-79
2022/01/17 12:53:16;;;;;;;64.32;10.52;;;8.90;99.90;;;;;;4853300;29;20085;-78
2022/01/17 12:55:48;;;;;;;51.63;10.02;;;9.00;99.90;;;;;;4854020;29;20038;-80
2022/01/17 12:58:27;;;;;;;57.63;9.95;;;9.00;99.90;;;;;;4837181;29;20050;-79
2022/01/17 13:00:55;;;;;;;48.20;9.45;;;8.90;99.90;;;;;;4834204;29;20483;-78
2022/01/17 13:03:24;;;;;;;63.33;9.93;;;8.90;99.90;;;;;;4835084;29;20076;-77
2022/01/17 13:05:50;;;;;;;55.17;10.52;;;8.90;99.90;;;;;;4853869;29;20101;-76
2022/01/17 13:08:16;;;;;;;55.53;10.52;;;8.90;99.90;;;;;;4853706;29;20214;-77
2022/01/17 13:10:42;;;;;;;63.53;11.05;;;9.00;99.90;;;;;;4853555;29;20054;-72
2022/01/17 13:13:15;;;;;;;54.70;8.32;;;9.00;99.90;;;;;;4853636;29;20065;-75
2022/01/17 13:15:51;;;;;;;45.15;8.68;;;9.00;99.90;;;;;;4853763;29;20151;-75
2022/01/17 13:18:17;;;;;;;54.97;9.07;;;9.00;99.90;;;;;;4818825;29;20066;-76
2022/01/17 13:20:43;;;;;;;51.67;9.00;;;9.00;99.90;;;;;;4820431;29;20462;-76
2022/01/17 13:23:14;;;;;;;44.20;8.63;;;9.10;99.90;;;;;;4853273;29;20420;-76
2022/01/17 13:25:40;;;;;;;58.38;10.73;;;9.00;99.90;;;;;;4853290;29;20073;-75